Time;durP1;ratioP1;P1;durP2;ratioP2;P2;SDS_P1;SDS_P2;PMS_P1;PMS_P2;Temp;Humidity;BMP_temperature;BMP_pressure;BME280_temperature;BME280_humidity;BME280_pressure;Samples;Min_cycle;Max_cycle;Signal;HPM_P1;HPM_P2
2021/11/21 00:01:33;;;;;;;;;;;;;;;6.37;59.53;99937.59;4424323;32;20000;-84
2021/11/21 00:03:58;;;;;;;;;;;;;;;6.31;59.52;99940.25;4424181;32;19985;-84
2021/11/21 00:06:23;;;;;;;;;;;;;;;6.21;59.53;99934.34;4424072;32;20347;-84
2021/11/21 00:08:49;;;;;;;;;;;;;;;6.11;59.51;99936.16;4424319;32;19985;-83
2021/11/21 00:11:14;;;;;;;;;;;;;;;6.10;59.52;99934.44;4423357;32;28734;-84
2021/11/21 00:13:39;;;;;;;;;;;;;;;6.11;59.51;99927.53;4423959;32;20017;-84
2021/11/21 00:16:06;;;;;;;;;;;;;;;6.22;59.53;99933.47;4424238;32;20033;-82
2021/11/21 00:18:31;;;;;;;;;;;;;;;6.24;59.52;99926.53;4424397;32;19993;-84
2021/11/21 00:20:56;;;;;;;;;;;;;;;6.15;59.52;99924.94;4438125;32;20000;-85
2021/11/21 00:23:22;;;;;;;;;;;;;;;6.22;59.53;99930.03;4438084;32;20027;-85
2021/11/21 00:25:48;;;;;;;;;;;;;;;6.26;59.52;99917.03;4411106;32;19985;-85
2021/11/21 00:28:13;;;;;;;;;;;;;;;6.57;59.54;99919.25;4411575;32;20062;-84
2021/11/21 00:30:38;;;;;;;;;;;;;;;6.33;59.53;99920.41;4437844;32;21075;-84
2021/11/21 00:33:04;;;;;;;;;;;;;;;6.28;59.53;99915.28;4424215;32;19973;-85
2021/11/21 00:35:29;;;;;;;;;;;;;;;6.02;59.51;99919.91;4438656;32;19996;-84
2021/11/21 00:37:54;;;;;;;;;;;;;;;6.18;59.52;99915.44;4426230;32;20016;-85
2021/11/21 00:40:19;;;;;;;;;;;;;;;6.06;59.52;99914.69;4413114;32;19988;-85
2021/11/21 00:42:45;;;;;;;;;;;;;;;5.98;59.50;99913.06;4413578;32;19995;-84
2021/11/21 00:45:10;;;;;;;;;;;;;;;6.08;59.52;99909.50;4412828;32;25883;-85
2021/11/21 00:47:36;;;;;;;;;;;;;;;5.99;59.51;99914.78;4413499;32;20004;-84
2021/11/21 00:50:03;;;;;;;;;;;;;;;5.96;59.51;99907.06;4413032;32;19997;-84
2021/11/21 00:52:30;;;;;;;;;;;;;;;5.79;59.50;99912.38;4413319;32;20049;-85
2021/11/21 00:55:07;;;;;;;;;;;;;;;5.80;59.50;99914.94;4439946;32;19977;-84
2021/11/21 00:57:32;;;;;;;;;;;;;;;5.79;59.50;99899.44;4439719;32;20060;-84
2021/11/21 00:59:57;;;;;;;;;;;;;;;5.53;59.49;99903.13;4438798;32;28360;-83
2021/11/21 01:02:23;;;;;;;;;;;;;;;5.76;59.50;99908.09;4438696;32;30483;-84
2021/11/21 01:04:48;;;;;;;;;;;;;;;5.78;59.50;99911.50;4412651;32;20406;-84
2021/11/21 01:07:14;;;;;;;;;;;;;;;5.77;59.50;99896.88;4412569;32;20158;-83
2021/11/21 01:09:39;;;;;;;;;;;;;;;5.67;59.49;99905.56;4425168;32;20298;-84
2021/11/21 01:12:05;;;;;;;;;;;;;;;5.76;59.50;99890.00;4425861;32;20013;-85
2021/11/21 01:14:30;;;;;;;;;;;;;;;5.80;59.49;99896.84;4413571;32;20562;-85
2021/11/21 01:16:56;;;;;;;;;;;;;;;5.76;59.50;99902.91;4413822;32;20531;-85
2021/11/21 01:19:21;;;;;;;;;;;;;;;5.77;59.50;99904.63;4413781;32;19992;-86
2021/11/21 01:21:46;;;;;;;;;;;;;;;5.83;59.50;99893.38;4413714;32;24833;-85
2021/11/21 01:24:12;;;;;;;;;;;;;;;5.89;59.50;99887.28;4414185;32;20052;-86
2021/11/21 01:26:37;;;;;;;;;;;;;;;5.81;59.50;99883.06;4414596;32;20011;-86
2021/11/21 01:29:03;;;;;;;;;;;;;;;5.68;59.50;99891.81;4414572;32;19981;-86
2021/11/21 01:31:28;;;;;;;;;;;;;;;5.57;59.49;99885.03;4414374;32;20283;-87
2021/11/21 01:33:53;;;;;;;;;;;;;;;5.66;59.49;99878.03;4414158;32;29269;-85
2021/11/21 01:36:18;;;;;;;;;;;;;;;5.55;59.49;99883.31;4414558;32;20039;-86
2021/11/21 01:38:44;;;;;;;;;;;;;;;5.71;59.50;99870.28;4414486;32;20017;-87
2021/11/21 01:41:09;;;;;;;;;;;;;;;5.81;59.50;99869.28;4414570;32;20353;-86
2021/11/21 01:43:35;;;;;;;;;;;;;;;5.83;59.51;99868.41;4427787;32;20009;-87
2021/11/21 01:46:00;;;;;;;;;;;;;;;5.76;59.50;99866.75;4426772;32;24209;-85
2021/11/21 01:48:25;;;;;;;;;;;;;;;5.83;59.51;99865.81;4440429;32;19977;-85
2021/11/21 01:50:50;;;;;;;;;;;;;;;5.66;59.49;99862.53;4413563;32;20011;-85
2021/11/21 01:53:16;;;;;;;;;;;;;;;5.73;59.49;99856.47;4413659;32;20621;-85
2021/11/21 01:55:41;;;;;;;;;;;;;;;5.65;59.49;99857.41;4440671;32;20041;-86
2021/11/21 01:58:06;;;;;;;;;;;;;;;5.82;59.50;99852.91;4426596;32;19970;-85
2021/11/21 02:00:32;;;;;;;;;;;;;;;5.39;59.48;99857.66;4414049;32;19981;-86
2021/11/21 02:02:58;;;;;;;;;;;;;;;5.60;59.48;99854.88;4426496;32;20038;-86
2021/11/21 02:05:23;;;;;;;;;;;;;;;5.37;59.47;99856.81;4413533;32;19993;-84
2021/11/21 02:07:48;;;;;;;;;;;;;;;5.39;59.48;99848.19;4413331;32;20000;-84
2021/11/21 02:10:14;;;;;;;;;;;;;;;5.31;59.48;99852.56;4413938;32;19982;-85
2021/11/21 02:12:39;;;;;;;;;;;;;;;5.19;59.47;99840.63;4425813;32;20003;-84
2021/11/21 02:15:07;;;;;;;;;;;;;;;5.13;59.46;99843.25;4425572;32;20279;-84
2021/11/21 02:17:32;;;;;;;;;;;;;;;5.05;59.46;99834.75;4412757;32;20037;-83
2021/11/21 02:20:02;;;;;;;;;;;;;;;5.06;59.46;99826.13;4412244;32;25626;-83
2021/11/21 02:22:27;;;;;;;;;;;;;;;5.12;59.46;99822.62;4413661;32;20043;-84
2021/11/21 02:24:52;;;;;;;;;;;;;;;5.03;59.46;99821.00;4413047;32;20327;-83
2021/11/21 02:27:18;;;;;;;;;;;;;;;5.10;59.46;99807.16;4426079;32;19970;-84
2021/11/21 02:29:43;;;;;;;;;;;;;;;4.96;59.45;99802.97;4415082;32;19996;-84
2021/11/21 02:32:08;;;;;;;;;;;;;;;5.05;59.46;99805.50;4412048;32;27818;-83
2021/11/21 02:34:34;;;;;;;;;;;;;;;4.76;59.44;99803.16;4438839;32;27441;-84
2021/11/21 02:36:59;;;;;;;;;;;;;;;4.75;59.44;99802.31;4412651;32;21146;-84
2021/11/21 02:39:24;;;;;;;;;;;;;;;4.87;59.46;99799.62;4425085;32;28068;-84
2021/11/21 02:41:50;;;;;;;;;;;;;;;4.93;59.45;99798.72;4425331;32;19992;-84
2021/11/21 02:44:15;;;;;;;;;;;;;;;4.90;59.45;99801.31;4412731;32;19985;-83
2021/11/21 02:46:41;;;;;;;;;;;;;;;5.07;59.46;99789.13;4424978;32;22013;-84
2021/11/21 02:49:06;;;;;;;;;;;;;;;4.99;59.45;99784.94;4425572;32;19974;-84
2021/11/21 02:51:31;;;;;;;;;;;;;;;5.28;59.47;99784.66;4425011;32;27177;-84
2021/11/21 02:53:56;;;;;;;;;;;;;;;5.03;59.46;99786.59;4425058;32;25593;-84
2021/11/21 02:56:22;;;;;;;;;;;;;;;5.05;59.46;99779.72;4425287;32;19973;-83
2021/11/21 02:58:47;;;;;;;;;;;;;;;5.14;59.46;99777.03;4411826;32;20334;-83
2021/11/21 03:01:14;;;;;;;;;;;;;;;5.33;59.48;99777.72;4412936;32;19982;-84
2021/11/21 03:03:39;;;;;;;;;;;;;;;5.22;59.46;99773.53;4426258;32;20318;-84
2021/11/21 03:06:04;;;;;;;;;;;;;;;5.06;59.46;99771.94;4425485;32;20043;-84
2021/11/21 03:08:30;;;;;;;;;;;;;;;5.05;59.46;99772.81;4412666;32;20244;-84
2021/11/21 03:10:55;;;;;;;;;;;;;;;5.13;59.46;99768.44;4424887;32;30021;-84
2021/11/21 03:13:20;;;;;;;;;;;;;;;5.07;59.46;99770.22;4412663;32;20007;-85
2021/11/21 03:15:45;;;;;;;;;;;;;;;5.10;59.46;99768.47;4412571;32;19969;-84
2021/11/21 03:18:11;;;;;;;;;;;;;;;5.07;59.46;99765.06;4412196;32;22539;-84
2021/11/21 03:20:36;;;;;;;;;;;;;;;5.02;59.46;99766.84;4425388;32;19989;-83
2021/11/21 03:23:01;;;;;;;;;;;;;;;5.05;59.46;99759.94;4425398;32;20001;-83
2021/11/21 03:25:27;;;;;;;;;;;;;;;4.90;59.45;99758.31;4425749;32;19988;-84
2021/11/21 03:27:52;;;;;;;;;;;;;;;4.79;59.45;99764.47;4425427;32;19993;-84
2021/11/21 03:30:18;;;;;;;;;;;;;;;4.80;59.45;99759.28;4425471;32;19996;-85
2021/11/21 03:32:43;;;;;;;;;;;;;;;4.80;59.45;99761.00;4412367;32;20658;-85
2021/11/21 03:35:09;;;;;;;;;;;;;;;4.67;59.44;99755.09;4425425;32;19974;-85
2021/11/21 03:37:34;;;;;;;;;;;;;;;4.66;59.44;99757.69;4424676;32;24343;-85
2021/11/21 03:40:00;;;;;;;;;;;;;;;4.56;59.43;99757.75;4439034;32;19974;-85
2021/11/21 03:42:25;;;;;;;;;;;;;;;4.60;59.43;99748.28;4425462;32;20000;-84
2021/11/21 03:44:50;;;;;;;;;;;;;;;4.54;59.43;99748.34;4424474;32;27022;-84
2021/11/21 03:47:15;;;;;;;;;;;;;;;4.53;59.42;99742.31;4424797;32;19981;-84
2021/11/21 03:49:41;;;;;;;;;;;;;;;4.35;59.42;99739.88;4425342;32;20008;-85
2021/11/21 03:52:06;;;;;;;;;;;;;;;4.38;59.42;99741.56;4425572;32;20037;-85
2021/11/21 03:54:31;;;;;;;;;;;;;;;4.39;59.42;99738.12;4438979;32;19988;-84
2021/11/21 03:56:56;;;;;;;;;;;;;;;4.41;59.42;99731.25;4425121;32;20008;-86
2021/11/21 03:59:22;;;;;;;;;;;;;;;4.40;59.42;99734.69;4438115;32;23666;-81
2021/11/21 04:01:47;;;;;;;;;;;;;;;4.41;59.42;99724.38;4423874;32;21360;-84
2021/11/21 04:04:13;;;;;;;;;;;;;;;4.44;59.42;99716.59;4411206;32;19970;-83
2021/11/21 04:06:38;;;;;;;;;;;;;;;4.43;59.43;99721.78;4423797;32;19995;-83
2021/11/21 04:11:48;;;;;;;;;;;;;;;4.48;59.42;99713.13;4428341;32;20012;-84
2021/11/21 04:14:13;;;;;;;;;;;;;;;4.36;59.42;99707.22;4425767;32;20303;-82
2021/11/21 04:16:38;;;;;;;;;;;;;;;4.18;59.41;99709.06;4439159;32;30226;-83
2021/11/21 04:19:04;;;;;;;;;;;;;;;4.34;59.41;99712.41;4426014;32;20307;-83
2021/11/21 04:21:29;;;;;;;;;;;;;;;4.32;59.41;99706.41;4413333;32;20014;-84
2021/11/21 04:23:55;;;;;;;;;;;;;;;4.29;59.42;99702.13;4425918;32;20376;-83
2021/11/21 04:26:20;;;;;;;;;;;;;;;4.18;59.41;99710.78;4412952;32;20346;-82
2021/11/21 04:28:46;;;;;;;;;;;;;;;4.22;59.41;99707.31;4425498;32;23383;-83
2021/11/21 04:31:11;;;;;;;;;;;;;;;4.30;59.42;99706.41;4439677;32;19982;-82
2021/11/21 04:33:36;;;;;;;;;;;;;;;4.38;59.42;99702.91;4425951;32;19982;-83
2021/11/21 04:36:01;;;;;;;;;;;;;;;4.16;59.41;99704.78;4413006;32;20307;-84
2021/11/21 04:38:27;;;;;;;;;;;;;;;4.19;59.40;99705.63;4412880;32;20024;-85
2021/11/21 04:40:53;;;;;;;;;;;;;;;4.12;59.40;99708.25;4413930;32;20004;-84
2021/11/21 04:43:18;;;;;;;;;;;;;;;4.11;59.40;99698.81;4415065;32;20005;-86
2021/11/21 04:45:44;;;;;;;;;;;;;;;3.98;59.40;99698.88;4415201;32;19988;-86
2021/11/21 04:48:09;;;;;;;;;;;;;;;3.98;59.39;99695.47;4414301;32;26984;-85
2021/11/21 04:50:34;;;;;;;;;;;;;;;3.89;59.39;99692.94;4427423;32;20016;-86
2021/11/21 04:52:59;;;;;;;;;;;;;;;4.05;59.40;99686.00;4427512;32;20235;-86
2021/11/21 04:55:25;;;;;;;;;;;;;;;3.97;59.39;99680.87;4427546;32;20064;-85
2021/11/21 04:57:50;;;;;;;;;;;;;;;4.02;59.40;99681.69;4414554;32;20350;-85
2021/11/21 05:00:16;;;;;;;;;;;;;;;3.95;59.39;99680.03;4413451;32;20290;-85
2021/11/21 05:02:42;;;;;;;;;;;;;;;3.89;59.39;99680.06;4414694;32;19973;-84
2021/11/21 05:05:08;;;;;;;;;;;;;;;3.93;59.40;99677.47;4427035;32;19992;-85
2021/11/21 05:07:33;;;;;;;;;;;;;;;4.06;59.40;99667.97;4414127;32;20038;-85
2021/11/21 05:09:58;;;;;;;;;;;;;;;3.92;59.40;99669.75;4427193;32;19986;-86
2021/11/21 05:12:24;;;;;;;;;;;;;;;3.90;59.40;99664.63;4426978;32;19984;-85
2021/11/21 05:14:49;;;;;;;;;;;;;;;3.93;59.39;99666.31;4414326;32;20016;-85
2021/11/21 05:17:14;;;;;;;;;;;;;;;3.79;59.39;99665.56;4413927;32;19986;-84
2021/11/21 05:19:39;;;;;;;;;;;;;;;3.77;59.39;99668.13;4413450;32;23695;-85
2021/11/21 05:22:05;;;;;;;;;;;;;;;3.79;59.39;99652.69;4413486;32;20017;-84
2021/11/21 05:24:30;;;;;;;;;;;;;;;3.80;59.39;99654.41;4413355;32;31876;-85
2021/11/21 05:26:56;;;;;;;;;;;;;;;3.68;59.37;99660.47;4413446;32;30459;-85
2021/11/21 05:29:21;;;;;;;;;;;;;;;3.58;59.38;99661.38;4414433;32;20376;-83
2021/11/21 05:31:46;;;;;;;;;;;;;;;3.68;59.37;99660.47;4425971;32;22120;-85
2021/11/21 05:34:12;;;;;;;;;;;;;;;3.68;59.37;99645.00;4439748;32;27532;-85
2021/11/21 05:36:37;;;;;;;;;;;;;;;3.78;59.39;99641.50;4426078;32;19982;-84
2021/11/21 05:39:03;;;;;;;;;;;;;;;3.69;59.38;99646.72;4439720;32;20005;-84
2021/11/21 05:41:28;;;;;;;;;;;;;;;3.63;59.38;99645.06;4413999;32;19978;-85
2021/11/21 05:43:53;;;;;;;;;;;;;;;3.65;59.38;99643.31;4414389;32;20008;-87
2021/11/21 05:46:18;;;;;;;;;;;;;;;3.65;59.38;99650.19;4413738;32;19982;-84
2021/11/21 05:48:44;;;;;;;;;;;;;;;3.71;59.38;99637.28;4426222;32;20005;-85
2021/11/21 05:51:09;;;;;;;;;;;;;;;3.78;59.38;99638.06;4419934;32;26110;-87
2021/11/21 05:53:34;;;;;;;;;;;;;;;3.79;59.39;99640.69;4414482;32;19993;-85
2021/11/21 05:55:59;;;;;;;;;;;;;;;3.75;59.38;99636.38;4440781;32;20051;-85
2021/11/21 05:58:25;;;;;;;;;;;;;;;3.75;59.38;99641.53;4413991;32;20042;-82
2021/11/21 06:00:51;;;;;;;;;;;;;;;3.80;59.38;99639.81;4412503;32;19977;-86
2021/11/21 06:03:16;;;;;;;;;;;;;;;3.97;59.41;99643.09;4414714;32;20026;-86
2021/11/21 06:05:41;;;;;;;;;;;;;;;3.98;59.39;99643.94;4414041;32;20342;-86
2021/11/21 06:08:06;;;;;;;;;;;;;;;3.92;59.40;99644.00;4414399;32;19996;-86
2021/11/21 06:10:32;;;;;;;;;;;;;;;4.00;59.40;99648.22;4427181;32;20582;-85
2021/11/21 06:12:58;;;;;;;;;;;;;;;4.10;59.40;99648.19;4414522;32;19985;-86
2021/11/21 06:15:23;;;;;;;;;;;;;;;4.10;59.40;99648.19;4414053;32;25991;-85
2021/11/21 06:17:48;;;;;;;;;;;;;;;4.20;59.40;99649.81;4426386;32;24116;-88
2021/11/21 06:20:13;;;;;;;;;;;;;;;4.25;59.41;99648.03;4427224;32;19969;-85
2021/11/21 06:22:39;;;;;;;;;;;;;;;4.39;59.42;99633.31;4413585;32;26763;-86
2021/11/21 06:25:04;;;;;;;;;;;;;;;4.38;59.42;99639.34;4414250;32;20019;-86
2021/11/21 06:27:30;;;;;;;;;;;;;;;4.50;59.42;99638.41;4413964;32;20001;-85
2021/11/21 06:29:55;;;;;;;;;;;;;;;4.58;59.43;99641.75;4413858;32;20337;-86
2021/11/21 06:32:20;;;;;;;;;;;;;;;4.53;59.43;99641.81;4413380;32;19993;-84
2021/11/21 06:34:45;;;;;;;;;;;;;;;4.69;59.44;99639.06;4439580;32;19998;-85
2021/11/21 06:37:11;;;;;;;;;;;;;;;4.77;59.44;99637.28;4413494;32;21266;-84
2021/11/21 06:39:40;;;;;;;;;;;;;;;4.76;59.44;99638.16;4413445;32;19974;-85
2021/11/21 06:42:06;;;;;;;;;;;;;;;4.74;59.44;99639.88;4413935;32;19988;-85
2021/11/21 06:44:31;;;;;;;;;;;;;;;4.74;59.44;99637.31;4426705;32;20329;-85
2021/11/21 06:46:56;;;;;;;;;;;;;;;4.87;59.45;99628.56;4426742;32;20001;-84
2021/11/21 06:49:22;;;;;;;;;;;;;;;4.93;59.45;99628.47;4413898;32;20060;-85
2021/11/21 06:51:48;;;;;;;;;;;;;;;5.04;59.46;99629.22;4426776;32;19991;-85
2021/11/21 06:54:14;;;;;;;;;;;;;;;5.15;59.46;99626.50;4413407;32;19993;-85
2021/11/21 06:56:39;;;;;;;;;;;;;;;5.23;59.46;99630.72;4413936;32;20011;-84
2021/11/21 06:59:04;;;;;;;;;;;;;;;5.21;59.46;99626.47;4426699;32;19974;-85
2021/11/21 07:01:29;;;;;;;;;;;;;;;5.52;59.49;99614.00;4413755;32;19993;-85
2021/11/21 07:03:55;;;;;;;;;;;;;;;5.58;59.49;99616.50;4413652;32;20035;-85
2021/11/21 07:06:33;;;;;;;;;;;;;;;5.59;59.48;99625.94;4426016;32;20649;-85
2021/11/21 07:08:59;;;;;;;;;;;;;;;5.43;59.48;99621.84;4413788;32;19945;-86
2021/11/21 07:11:24;;;;;;;;;;;;;;;5.60;59.48;99619.91;4413714;32;20031;-85
2021/11/21 07:13:49;;;;;;;;;;;;;;;5.69;59.50;99626.69;4413693;32;20063;-83
2021/11/21 07:16:15;;;;;;;;;;;;;;;5.73;59.49;99620.59;4426071;32;20645;-83
2021/11/21 07:18:40;;;;;;;;;;;;;;;5.68;59.50;99625.84;4426079;32;19989;-85
2021/11/21 07:21:05;;;;;;;;;;;;;;;5.76;59.50;99626.56;4412893;32;30532;-85
2021/11/21 07:23:30;;;;;;;;;;;;;;;5.83;59.50;99619.56;4412533;32;27489;-85
2021/11/21 07:25:55;;;;;;;;;;;;;;;6.01;59.51;99618.47;4413461;32;20329;-85
2021/11/21 07:28:21;;;;;;;;;;;;;;;6.17;59.52;99612.19;4425801;32;20688;-85
2021/11/21 07:30:46;;;;;;;;;;;;;;;6.24;59.52;99606.03;4412503;32;27985;-85
2021/11/21 07:33:11;;;;;;;;;;;;;;;6.23;59.53;99609.50;4413067;32;19989;-86
2021/11/21 07:35:36;;;;;;;;;;;;;;;6.33;59.53;99607.59;4439929;32;19993;-85
2021/11/21 07:38:01;;;;;;;;;;;;;;;6.53;59.54;99602.09;4413207;32;20008;-85
2021/11/21 07:40:27;;;;;;;;;;;;;;;6.62;59.54;99602.75;4412753;32;20239;-85
2021/11/21 07:42:52;;;;;;;;;;;;;;;6.36;59.53;99603.22;4425688;32;20131;-86
2021/11/21 07:45:17;;;;;;;;;;;;;;;6.23;59.53;99606.91;4415792;32;19993;-86
2021/11/21 07:47:44;;;;;;;;;;;;;;;6.36;59.54;99610.13;4417807;32;31268;-86
2021/11/21 07:50:10;;;;;;;;;;;;;;;6.58;59.55;99613.19;4431394;32;20022;-87
2021/11/21 07:52:35;;;;;;;;;;;;;;;6.69;59.54;99601.78;4431061;32;20024;-87
2021/11/21 07:55:00;;;;;;;;;;;;;;;6.72;59.55;99598.28;4431751;32;20270;-86
2021/11/21 07:57:25;;;;;;;;;;;;;;;6.85;59.55;99593.72;4430557;32;20039;-84
2021/11/21 07:59:51;;;;;;;;;;;;;;;6.90;59.56;99597.09;4417645;32;28370;-87
2021/11/21 08:02:16;;;;;;;;;;;;;;;6.78;59.55;99593.84;4430399;32;20037;-85
2021/11/21 08:04:41;;;;;;;;;;;;;;;6.91;59.56;99586.72;4417199;32;27590;-87
2021/11/21 08:07:08;;;;;;;;;;;;;;;6.90;59.56;99582.41;4429946;32;25762;-86
2021/11/21 08:09:34;;;;;;;;;;;;;;;7.00;59.57;99583.06;4417415;32;19985;-86
2021/11/21 08:11:59;;;;;;;;;;;;;;;6.99;59.57;99578.78;4415272;32;20297;-85
2021/11/21 08:14:24;;;;;;;;;;;;;;;7.16;59.57;99586.22;4417142;32;20003;-86
2021/11/21 08:16:49;;;;;;;;;;;;;;;7.21;59.58;99581.78;4442582;32;29696;-85
2021/11/21 08:19:14;;;;;;;;;;;;;;;7.55;59.60;99576.72;4443122;32;24825;-86
2021/11/21 08:21:40;;;;;;;;;;;;;;;7.33;59.58;99581.50;4429295;32;20307;-84
2021/11/21 08:24:07;;;;;;;;;;;;;;;7.50;59.60;99574.22;4415827;32;20050;-86
2021/11/21 08:26:32;;;;;;;;;;;;;;;7.66;59.60;99573.00;4429081;32;20523;-85
2021/11/21 08:28:57;;;;;;;;;;;;;;;7.74;59.61;99569.38;4416325;32;19989;-84
2021/11/21 08:31:23;;;;;;;;;;;;;;;7.94;59.62;99568.03;4429178;32;20358;-85
2021/11/21 08:33:48;;;;;;;;;;;;;;;8.10;59.62;99570.25;4428791;32;20004;-86
2021/11/21 08:36:13;;;;;;;;;;;;;;;8.13;59.63;99567.56;4431006;32;20705;-86
2021/11/21 08:38:39;;;;;;;;;;;;;;;8.02;59.62;99566.09;4429393;32;20019;-85
2021/11/21 08:41:04;;;;;;;;;;;;;;;7.98;59.61;99559.28;4429447;32;19985;-84
2021/11/21 08:43:29;;;;;;;;;;;;;;;8.23;59.64;99551.75;4416045;32;24602;-86
2021/11/21 08:45:54;;;;;;;;;;;;;;;8.19;59.63;99550.13;4443746;32;20235;-86
2021/11/21 08:48:19;;;;;;;;;;;;;;;8.35;59.64;99547.19;4416159;32;25314;-85
2021/11/21 08:50:45;;;;;;;;;;;;;;;8.34;59.64;99548.06;4416130;32;20070;-83
2021/11/21 08:53:10;;;;;;;;;;;;;;;8.46;59.65;99543.37;4429083;32;20031;-85
2021/11/21 08:55:35;;;;;;;;;;;;;;;8.45;59.65;99540.84;4428517;32;19984;-86
2021/11/21 08:58:01;;;;;;;;;;;;;;;8.63;59.66;99535.16;4426144;32;20303;-85
2021/11/21 09:00:26;;;;;;;;;;;;;;;8.63;59.65;99532.56;4426523;32;20087;-86
2021/11/21 09:02:52;;;;;;;;;;;;;;;8.60;59.66;99540.44;4413422;32;20015;-85
2021/11/21 09:05:17;;;;;;;;;;;;;;;8.50;59.65;99532.03;4425786;32;20302;-85
2021/11/21 09:07:42;;;;;;;;;;;;;;;8.47;59.65;99534.72;4426094;32;26613;-84
2021/11/21 09:10:09;;;;;;;;;;;;;;;8.48;59.64;99532.97;4426279;32;20000;-84
2021/11/21 09:12:34;;;;;;;;;;;;;;;8.69;59.66;99523.75;4412170;32;19997;-85
2021/11/21 09:14:59;;;;;;;;;;;;;;;8.69;59.66;99524.59;4438773;32;20347;-84
2021/11/21 09:17:25;;;;;;;;;;;;;;;8.83;59.67;99524.22;4439023;32;20108;-84
2021/11/21 09:19:50;;;;;;;;;;;;;;;8.84;59.67;99520.75;4424516;32;20016;-84
2021/11/21 09:22:15;;;;;;;;;;;;;;;8.91;59.68;99512.72;4411039;32;29655;-85
2021/11/21 09:24:40;;;;;;;;;;;;;;;8.92;59.67;99508.38;4424919;32;20050;-84
2021/11/21 09:27:07;;;;;;;;;;;;;;;8.89;59.67;99509.31;4411414;32;28590;-83
2021/11/21 09:29:32;;;;;;;;;;;;;;;9.01;59.68;99504.69;4440115;32;19954;-84
2021/11/21 09:31:57;;;;;;;;;;;;;;;9.11;59.67;99509.53;4424774;32;20056;-83
2021/11/21 09:34:22;;;;;;;;;;;;;;;9.10;59.68;99507.00;4438237;32;24645;-82
2021/11/21 09:36:48;;;;;;;;;;;;;;;9.21;59.69;99507.50;4438720;32;19997;-83
2021/11/21 09:39:13;;;;;;;;;;;;;;;9.14;59.69;99517.25;4406490;32;780888;-82
2021/11/21 09:41:39;;;;;;;;;;;;;;;9.15;59.69;99505.94;4432503;32;19984;-84
2021/11/21 09:44:04;;;;;;;;;;;;;;;9.19;59.68;99498.91;4411691;32;20331;-84
2021/11/21 09:46:29;;;;;;;;;;;;;;;9.50;59.70;99494.50;4438704;32;20254;-83
2021/11/21 09:48:55;;;;;;;;;;;;;;;9.47;59.70;99492.00;4438576;32;20488;-84
2021/11/21 09:51:21;;;;;;;;;;;;;;;9.25;59.69;99485.78;4424339;32;20000;-83
2021/11/21 09:53:47;;;;;;;;;;;;;;;9.20;59.69;99485.03;4426624;32;19978;-84
2021/11/21 09:56:13;;;;;;;;;;;;;;;9.23;59.69;99477.19;4412876;32;20028;-85
2021/11/21 09:58:38;;;;;;;;;;;;;;;9.22;59.69;99470.25;4427045;32;19998;-84
2021/11/21 10:01:03;;;;;;;;;;;;;;;9.22;59.69;99462.47;4425684;32;20345;-85
2021/11/21 10:03:29;;;;;;;;;;;;;;;9.32;59.69;99463.88;4437545;32;20019;-84
2021/11/21 10:05:54;;;;;;;;;;;;;;;9.50;59.71;99468.50;4424259;32;19989;-84
2021/11/21 10:08:20;;;;;;;;;;;;;;;9.53;59.71;99462.38;4412213;32;19985;-85
2021/11/21 10:10:46;;;;;;;;;;;;;;;9.49;59.71;99455.56;4425214;32;20053;-85
2021/11/21 10:13:41;;;;;;;;;;;;;;;9.66;59.71;99453.25;4439202;32;19973;-84
2021/11/21 10:16:19;;;;;;;;;;;;;;;9.61;59.71;99449.97;4414254;32;20327;-84
2021/11/21 10:18:45;;;;;;;;;;;;;;;9.75;59.72;99442.56;4425149;32;19997;-84
2021/11/21 10:21:10;;;;;;;;;;;;;;;10.02;59.73;99434.72;4412666;32;20004;-83
2021/11/21 10:23:35;;;;;;;;;;;;;;;9.96;59.73;99435.78;4424465;32;24727;-85
2021/11/21 10:26:00;;;;;;;;;;;;;;;9.92;59.72;99428.97;4424776;32;20333;-86
2021/11/21 10:28:25;;;;;;;;;;;;;;;10.12;59.74;99436.09;4426682;32;22424;-83
2021/11/21 10:30:53;;;;;;;;;;;;;;;10.12;59.74;99423.09;4439061;32;19985;-84
2021/11/21 10:33:19;;;;;;;;;;;;;;;10.23;59.74;99433.16;4438912;32;19969;-84
2021/11/21 10:35:45;;;;;;;;;;;;;;;10.41;59.76;99430.75;4424820;32;19999;-84
2021/11/21 10:38:10;;;;;;;;;;;;;;;10.40;59.76;99423.81;4412083;32;20053;-84
2021/11/21 10:40:35;;;;;;;;;;;;;;;10.55;59.76;99416.38;4412056;32;20025;-83
2021/11/21 10:43:01;;;;;;;;;;;;;;;10.75;59.77;99419.94;4438402;32;21731;-85
2021/11/21 10:45:26;;;;;;;;;;;;;;;10.69;59.77;99414.13;4438292;32;22795;-84
2021/11/21 10:47:52;;;;;;;;;;;;;;;10.87;59.78;99402.97;4412881;32;19993;-85
2021/11/21 10:50:27;;;;;;;;;;;;;;;10.97;59.78;99396.50;4412053;32;20001;-85
2021/11/21 10:52:52;;;;;;;;;;;;;;;11.05;59.78;99393.59;4425056;32;20373;-85
2021/11/21 10:55:17;;;;;;;;;;;;;;;11.10;59.79;99391.66;4438853;32;19962;-84
2021/11/21 10:57:42;;;;;;;;;;;;;;;11.18;59.79;99381.78;4425403;32;20254;-85
2021/11/21 11:00:15;;;;;;;;;;;;;;;11.30;59.81;99373.47;4412157;32;19993;-85
2021/11/21 11:02:40;;;;;;;;;;;;;;;11.32;59.80;99370.78;4411752;32;19984;-83
2021/11/21 11:05:15;;;;;;;;;;;;;;;11.31;59.80;99361.28;4424489;32;19981;-84
2021/11/21 11:07:46;;;;;;;;;;;;;;;11.37;59.80;99361.06;4424556;32;20004;-85
2021/11/21 11:10:18;;;;;;;;;;;;;;;11.52;59.81;99351.72;4424800;32;20056;-82
2021/11/21 11:12:50;;;;;;;;;;;;;;;11.57;59.81;99348.00;4437841;32;20033;-82
2021/11/21 11:15:15;;;;;;;;;;;;;;;11.57;59.82;99348.00;4423734;32;19981;-84
2021/11/21 11:17:41;;;;;;;;;;;;;;;11.60;59.81;99353.13;4423988;32;20329;-83
2021/11/21 11:20:07;;;;;;;;;;;;;;;11.80;59.83;99352.28;4423953;32;20050;-84
2021/11/21 11:22:32;;;;;;;;;;;;;;;11.80;59.83;99344.44;4434196;32;19977;-84
2021/11/21 11:24:59;;;;;;;;;;;;;;;11.87;59.83;99335.47;4424055;32;21017;-85
2021/11/21 11:27:28;;;;;;;;;;;;;;;11.80;59.82;99331.41;4424457;32;19986;-85
2021/11/21 11:29:53;;;;;;;;;;;;;;;12.10;59.84;99328.38;4438425;32;20335;-84
2021/11/21 11:32:25;;;;;;;;;;;;;;;12.13;59.84;99317.81;4424301;32;20075;-83
2021/11/21 11:34:51;;;;;;;;;;;;;;;12.30;59.86;99312.66;4438436;32;20026;-84
2021/11/21 11:37:35;;;;;;;;;;;;;;;11.99;59.84;99314.03;4411519;32;19994;-86
2021/11/21 11:40:00;;;;;;;;;;;;;;;11.73;59.83;99310.88;4423797;32;20052;-84
2021/11/21 11:42:35;;;;;;;;;;;;;;;11.89;59.83;99304.94;4437432;32;25853;-84
2021/11/21 11:45:00;;;;;;;;;;;;;;;12.22;59.85;99304.34;4411263;32;20039;-86
2021/11/21 11:47:26;;;;;;;;;;;;;;;12.21;59.84;99297.41;4438111;32;20005;-85
2021/11/21 11:49:51;;;;;;;;;;;;;;;12.24;59.86;99294.66;4423873;32;20013;-84
2021/11/21 11:52:16;;;;;;;;;;;;;;;12.21;59.85;99290.44;4423414;32;23920;-85
2021/11/21 11:54:43;;;;;;;;;;;;;;;11.95;59.84;99288.16;4423686;32;28513;-85
2021/11/21 11:57:09;;;;;;;;;;;;;;;11.93;59.83;99284.78;4412461;32;20035;-84
2021/11/21 11:59:34;;;;;;;;;;;;;;;12.02;59.84;99279.16;4411505;32;20305;-85
2021/11/21 12:02:20;;;;;;;;;;;;;;;11.97;59.83;99286.34;4437659;32;20000;-84
2021/11/21 12:04:45;;;;;;;;;;;;;;;11.95;59.83;99290.78;4424066;32;20262;-85
2021/11/21 12:07:32;;;;;;;;;;;;;;;12.09;59.84;99298.84;4423717;32;19989;-85
2021/11/21 12:09:58;;;;;;;;;;;;;;;12.07;59.84;99286.78;4437422;32;19993;-85
2021/11/21 12:12:43;;;;;;;;;;;;;;;12.01;59.84;99289.66;4423718;32;19978;-85
2021/11/21 12:15:27;;;;;;;;;;;;;;;11.78;59.83;99296.72;4437633;32;20052;-85
2021/11/21 12:17:53;;;;;;;;;;;;;;;11.93;59.83;99284.78;4437802;32;20371;-84
2021/11/21 12:20:37;;;;;;;;;;;;;;;11.89;59.83;99286.69;4410247;32;19990;-84
2021/11/21 12:23:02;;;;;;;;;;;;;;;11.69;59.82;99281.47;4437414;32;19973;-85
2021/11/21 12:25:27;;;;;;;;;;;;;;;11.85;59.83;99286.91;4422746;32;27569;-83
2021/11/21 12:27:57;;;;;;;;;;;;;;;11.96;59.83;99282.88;4422652;32;31861;-84
2021/11/21 12:30:23;;;;;;;;;;;;;;;12.00;59.84;99283.59;4423536;32;20061;-84
2021/11/21 12:32:49;;;;;;;;;;;;;;;11.94;59.83;99283.87;4425075;32;20721;-86
2021/11/21 12:35:24;;;;;;;;;;;;;;;12.08;59.84;99278.03;4412839;32;19998;-85
2021/11/21 12:37:49;;;;;;;;;;;;;;;12.11;59.85;99273.53;4425043;32;20053;-84
2021/11/21 12:40:16;;;;;;;;;;;;;;;11.95;59.84;99272.53;4439346;32;19981;-85
2021/11/21 12:42:41;;;;;;;;;;;;;;;12.00;59.84;99265.31;4412695;32;19970;-86
2021/11/21 12:45:06;;;;;;;;;;;;;;;11.92;59.84;99267.44;4425460;32;20240;-83
2021/11/21 12:47:32;;;;;;;;;;;;;;;11.91;59.84;99269.22;4424809;32;19997;-83
2021/11/21 12:49:57;;;;;;;;;;;;;;;11.79;59.83;99269.75;4425201;32;19990;-85
2021/11/21 12:52:23;;;;;;;;;;;;;;;11.76;59.83;99263.78;4425108;32;20001;-84